• Join FlightAware (Why Join?)
  • Login
  • US Flag 
11:09PM EST


 

Airport Tracker/Info


-or-


 

Live Flight TrackerFlight Track Log ✈ SWA720 ✈ 27-Feb-2014 ✈ KMDW - KLAX

Flight Track Log - Related Links

Times and Time Zones

All times are in EST time to prevent confusion due to time zone crossing. See the SWA720 flight status page for this flight to view local times or setup timezone preferences in your user account.

Time Position Orientation Groundspeed Altitude Reporting Facility
EST Latitude Longitude Course Direction KTS MPH feet Rate Location/Type
10:06AM 41.7833 -87.8333 270° West 209 241 3,300  Level Chicago TRACON
10:06AM 41.7667 -87.9000 251° West 243 280 4,100 2,100 Climbing Chicago TRACON
10:08AM 41.7836 -88.0050 282° West 231 266 7,900 3,240 Climbing Chicago Center
10:09AM 41.8078 -88.0825 293° West 226 260 11,400 3,180 Climbing Chicago Center
10:10AM 41.8225 -88.1656 283° West 221 254 14,500 2,220 Climbing Chicago Center
10:11AM 41.7833 -88.5930 270° West  Level FlightAware Approximate
10:11AM 41.8183 -88.2614 267° West 259 298 16,100  Level Chicago Center
10:12AM 41.8136 -88.3708 267° West 276 318 18,600 2,160 Climbing Chicago Center
10:13AM 41.8094 -88.4775 267° West 286 329 20,600 1,920 Climbing Chicago Center
10:14AM 41.8044 -88.5886 267° West 297 342 22,600 1,440 Climbing Chicago Center
10:15AM 41.7947 -88.7050 264° West 316 364 23,600 780 Climbing Chicago Center
10:16AM 41.7719 -88.8358 257° West 359 413 24,300 960 Climbing Chicago Center
10:17AM 41.7478 -88.9722 257° West 376 433 25,700 1,620 Climbing Chicago Center
10:18AM 41.7175 -89.1375 256° West 384 442 27,700 1,800 Climbing Chicago Center
10:19AM 41.6925 -89.2742 256° West 380 437 29,400 1,500 Climbing Chicago Center
10:20AM 41.6689 -89.4072 257° West 371 427 30,800 1,200 Climbing Chicago Center
10:21AM 41.6447 -89.5394 256° West 367 422 32,000 1,200 Climbing Chicago Center
10:22AM 41.6186 -89.6881 257° West 369 425 33,300 960 Climbing Chicago Center
10:23AM 41.5936 -89.8181 256° West 364 419 34,000 300 Climbing Chicago Center
10:24AM 41.5694 -89.9494 256° West 367 422 34,000  Level Chicago Center
10:25AM 41.5456 -90.0789 256° West 363 418 34,000  Level Chicago Center
10:26AM 41.5219 -90.2097 256° West 364 419 34,000  Level Chicago Center
10:27AM 41.4964 -90.3389 255° West 363 418 34,000  Level Chicago Center
10:28AM 41.4667 -90.4964 256° West 366 421 34,000  Level Chicago Center
10:29AM 41.4414 -90.6264 255° West 365 420 34,000  Level Chicago Center
10:30AM 41.4128 -90.7633 254° West 379 436 34,000  Level Chicago Center
10:31AM 41.3881 -90.8933 256° West 367 422 34,000  Level Chicago Center
10:32AM 41.3614 -91.0272 255° West 374 430 34,000  Level Chicago Center
10:33AM 41.3353 -91.1600 255° West 374 430 34,000  Level Chicago Center
10:35AM 41.3036 -91.3208 255° West 375 432 34,000  Level Chicago Center
10:36AM 41.2767 -91.4508 255° West 377 434 34,000  Level Chicago Center
10:37AM 41.2503 -91.5842 255° West 376 433 34,000  Level Chicago Center
10:38AM 41.2200 -91.7256 254° West 374 430 34,000  Level Chicago Center
10:39AM 41.1931 -91.8583 255° West 375 432 34,000  Level Chicago Center
10:40AM 41.1656 -91.9911 255° West 375 432 34,000  Level Chicago Center
10:41AM 41.1328 -92.1497 255° West 375 432 34,000  Level Chicago Center
10:42AM 41.1044 -92.2836 254° West 379 436 34,000  Level Chicago Center
10:43AM 41.0769 -92.4156 255° West 376 433 34,000  Level Chicago Center
10:44AM 41.0481 -92.5475 254° West 376 433 34,000  Level Chicago Center
10:45AM 41.0192 -92.6831 254° West 381 438 34,000  Level Chicago Center
10:46AM 40.9911 -92.8156 254° West 378 435 34,000  Level Chicago Center
10:47AM 40.9561 -92.9753 254° West 379 436 34,000  Level Chicago Center
10:48AM 40.9267 -93.1094 254° West 383 441 34,000  Level Chicago Center
10:49AM 40.8972 -93.2436 254° West 384 442 34,000  Level Chicago Center
10:50AM 40.8672 -93.3764 253° West 382 440 34,000  Level Chicago Center
10:51AM 40.8369 -93.5108 253° West 384 442 34,000  Level Chicago Center
10:52AM 40.8017 -93.6733 254° West 386 444 34,000  Level Chicago Center
10:53AM 40.7706 -93.8092 253° West 390 449 34,000  Level Chicago Center
10:54AM 40.7403 -93.9447 254° West 388 447 34,000  Level Chicago Center
10:55AM 40.7094 -94.0789 253° West 386 444 34,000  Level Chicago Center
10:56AM 40.6789 -94.2144 253° West 389 448 34,000  Level Chicago Center
10:57AM 40.6458 -94.3500 252° West 390 449 34,000  Level Chicago Center
10:59AM 40.5969 -94.5678 254° West 391 450 34,000  Level Minneapolis Center
11:00AM 40.5658 -94.7050 253° West 392 451 34,000  Level Minneapolis Center
11:01AM 40.5286 -94.8569 252° West 392 451 34,000  Level Minneapolis Center
11:02AM 40.4928 -95.0092 253° West 393 452 34,000  Level Minneapolis Center
11:03AM 40.4600 -95.1481 253° West 394 453 34,000  Level Minneapolis Center
11:04AM 40.4261 -95.2872 252° West 395 455 34,000  Level Minneapolis Center
11:05AM 40.3933 -95.4242 253° West 395 455 34,000  Level Minneapolis Center
11:06AM 40.3592 -95.5625 252° West 395 455 34,000  Level Minneapolis Center
11:07AM 40.3250 -95.6997 252° West 395 455 34,000  Level Minneapolis Center
11:08AM 40.2919 -95.8369 253° West 395 455 34,000  Level Minneapolis Center
11:10AM 40.2172 -96.1353 252° West 394 453 34,000  Level Minneapolis Center
11:11AM 40.1853 -96.2728 253° West 394 453 34,000  Level Minneapolis Center
11:12AM 40.1569 -96.4103 255° West 394 453 34,000  Level Minneapolis Center
11:13AM 40.1261 -96.5464 254° West 393 452 34,000  Level Minneapolis Center
11:14AM 40.0961 -96.6842 254° West 393 452 34,000  Level Minneapolis Center
11:15AM 40.0664 -96.8222 254° West 393 452 34,000  Level Minneapolis Center
11:16AM 40.0358 -96.9603 254° West 393 452 34,000  Level Minneapolis Center
11:17AM 40.0050 -97.0983 254° West 393 452 34,000  Level Minneapolis Center
11:18AM 39.9683 -97.2639 254° West 393 452 34,000  Level Minneapolis Center
11:19AM 39.9367 -97.4031 254° West 394 453 34,000  Level Minneapolis Center
11:20AM 39.9058 -97.5428 254° West 395 455 34,000  Level Minneapolis Center
11:21AM 39.8739 -97.6808 253° West 396 456 34,000  Level Minneapolis Center
11:23AM 39.8094 -97.9586 253° West 396 456 34,000  Level Minneapolis Center
11:24AM 39.7772 -98.0983 253° West 398 458 34,000  Level Minneapolis Center
11:26AM 39.7389 -98.2681 254° West 402 463 34,000  Level Minneapolis Center
11:27AM 39.7058 -98.4081 253° West 403 464 34,000  Level Minneapolis Center
11:28AM 39.6722 -98.5464 253° West 403 464 34,000  Level Minneapolis Center
11:29AM 39.6381 -98.6858 252° West 403 464 34,000  Level Minneapolis Center
11:30AM 39.6050 -98.8306 254° West 403 464 34,000  Level Denver Center
11:31AM 39.5661 -98.9858 252° West 403 464 34,000  Level Denver Center
11:32AM 39.5342 -99.1181 253° West 403 464 34,000  Level Denver Center
11:33AM 39.4969 -99.2733 253° West 403 464 34,000  Level Denver Center
11:34AM 39.4642 -99.4061 252° West 403 464 34,000  Level Denver Center
11:35AM 39.4256 -99.5608 252° West 403 464 34,000  Level Denver Center
11:36AM 39.3928 -99.6931 252° West 403 464 34,000  Level Denver Center
11:37AM 39.3539 -99.8464 252° West 403 464 34,000  Level Denver Center
11:38AM 39.3219 -99.9750 252° West 403 464 34,000  Level Denver Center
11:39AM 39.2894 -100.1044 252° West 401 461 34,000  Level Denver Center
11:40AM 39.2519 -100.2556 252° West 400 460 34,000  Level Denver Center
11:41AM 39.2244 -100.3903 255° West 400 460 34,000  Level Denver Center
11:42AM 39.1914 -100.5489 255° West 403 464 34,000  Level Denver Center
11:43AM 39.1625 -100.6850 255° West 406 467 34,000  Level Denver Center
11:45AM 39.1000 -100.9811 255° West 411 473 34,000  Level Denver Center
11:46AM 39.0647 -101.1397 254° West 412 474 34,000  Level Denver Center
11:47AM 39.0350 -101.2756 254° West 412 474 34,000  Level Denver Center
11:48AM 39.0000 -101.4347 254° West 412 474 34,000  Level Denver Center
11:49AM 38.9700 -101.5706 254° West 413 475 34,000  Level Denver Center
11:50AM 38.9339 -101.7317 254° West 415 478 34,000  Level Denver Center
11:51AM 38.9033 -101.8683 254° West 415 478 34,000  Level Denver Center
11:52AM 38.8725 -102.0036 254° West 415 478 34,000  Level Denver Center
11:53AM 38.8347 -102.1628 253° West 415 478 34,000  Level Denver Center
11:54AM 38.8047 -102.2956 254° West 409 471 34,000  Level Denver Center
11:56AM 38.7689 -102.4497 253° West 407 468 34,000  Level Denver Center
11:57AM 38.7392 -102.5833 254° West 407 468 34,000  Level Denver Center
11:58AM 38.7031 -102.7375 253° West 407 468 34,000  Level Denver Center
11:59AM 38.6744 -102.8667 254° West 407 468 34,000  Level Denver Center
12:00PM 38.6414 -103.0056 253° West 407 468 34,000  Level Denver Center
12:01PM 38.6014 -103.1719 253° West 407 468 34,000  Level Denver Center
12:02PM 38.5678 -103.3122 253° West 407 468 34,000  Level Denver Center
12:03PM 38.5358 -103.4436 253° West 407 468 34,000  Level Denver Center
12:04PM 38.4997 -103.5967 253° West 407 468 34,000  Level Denver Center
12:05PM 38.4672 -103.7278 252° West 407 468 34,000  Level Denver Center
12:06PM 38.4300 -103.8797 253° West 406 467 34,000  Level Denver Center
12:07PM 38.3983 -104.0103 253° West 406 467 34,000  Level Denver Center
12:08PM 38.3619 -104.1592 253° West 403 464 34,000  Level Denver Center
12:09PM 38.3278 -104.2936 252° West 402 463 34,000  Level Denver Center
12:10PM 38.2922 -104.4372 253° West 397 457 34,000  Level Denver Center
12:11PM 38.2608 -104.5622 252° West 395 455 34,000  Level Denver Center
12:12PM 38.2247 -104.7117 253° West 395 455 34,000  Level Denver Center
12:13PM 38.1925 -104.8389 252° West 394 453 34,000  Level Denver Center
12:14PM 38.1558 -104.9914 253° West 403 464 34,000  Level Denver Center
12:15PM 38.1217 -105.1228 252° West 406 467 34,000  Level Denver Center
12:16PM 38.0828 -105.2769 252° West 409 471 34,000  Level Denver Center
12:17PM 38.0497 -105.4083 252° West 409 471 34,000  Level Denver Center
12:18PM 38.0167 -105.5392 252° West 409 471 34,000  Level Denver Center
12:19PM 37.9767 -105.6931 252° West 409 471 34,000  Level Denver Center
12:20PM 37.9433 -105.8242 252° West 410 472 34,000  Level Denver Center
12:21PM 37.9036 -105.9764 252° West 410 472 34,000  Level Denver Center
12:22PM 37.8686 -106.1075 251° West 410 472 34,000  Level Denver Center
12:23PM 37.8283 -106.2586 251° West 409 471 34,000  Level Denver Center
12:24PM 37.7906 -106.4011 251° West 409 471 34,000  Level Denver Center
12:26PM 37.7550 -106.5311 251° West 410 472 34,000  Level Denver Center
12:27PM 37.7142 -106.6822 251° West 410 472 34,000  Level Denver Center
12:28PM 37.6797 -106.8142 252° West 410 472 34,000  Level Denver Center
12:29PM 37.6403 -106.9639 252° West 408 470 34,000  Level Denver Center
12:30PM 37.6044 -107.0911 250° West 407 468 34,000  Level Denver Center
12:31PM 37.5642 -107.2408 251° West 406 467 34,000  Level Denver Center
12:32PM 37.5289 -107.3681 251° West 405 466 34,000  Level Denver Center
12:33PM 37.4878 -107.5194 251° West 405 466 34,000  Level Denver Center
12:34PM 37.4522 -107.6486 251° West 406 467 34,000  Level Denver Center
12:35PM 37.4108 -107.7958 251° West 405 466 34,000  Level Denver Center
12:36PM 37.3758 -107.9225 251° West 403 464 34,000  Level Denver Center
12:37PM 37.3353 -108.0683 251° West 400 460 34,000  Level Denver Center
12:38PM 37.3000 -108.1894 250° West 394 453 34,000  Level Denver Center
12:39PM 37.2600 -108.3300 250° West 387 445 34,000  Level Denver Center
12:40PM 37.2264 -108.4506 251° West 386 444 34,000  Level Denver Center
12:41PM 37.1917 -108.5675 250° West 381 438 34,000  Level Denver Center
12:42PM 37.1528 -108.7031 250° West 377 434 34,000  Level Denver Center
12:43PM 37.1197 -108.8172 250° West 370 426 34,000  Level Denver Center
12:44PM 37.0797 -108.9517 250° West 370 426 34,000  Level Denver Center
12:45PM 37.0461 -109.0681 250° West 370 426 34,000  Level Denver Center
12:46PM 37.0072 -109.2006 250° West 370 426 34,000  Level Denver Center
12:47PM 36.9736 -109.3144 250° West 369 425 34,000  Level Denver Center
12:48PM 36.9336 -109.4483 250° West 368 423 34,000  Level Denver Center
12:49PM 36.9003 -109.5603 250° West 365 420 34,000  Level Denver Center
12:50PM 36.8608 -109.6936 250° West 365 420 34,000  Level Denver Center
12:51PM 36.8278 -109.8058 250° West 364 419 34,000  Level Denver Center
12:52PM 36.7883 -109.9364 249° West 364 419 34,000  Level Denver Center
12:53PM 36.7592 -110.0317 249° West 364 419 34,000  Level Denver Center
12:54PM 36.7175 -110.1731 250° West 364 419 34,000  Level Denver Center
12:56PM 36.6822 -110.2897 249° West 364 419 34,000  Level Denver Center
12:57PM 36.6392 -110.4319 249° West 364 419 34,000  Level Denver Center
12:58PM 36.5869 -110.5986 249° West 365 420 34,000  Level Denver Center
12:59PM 36.5519 -110.7147 249° West 365 420 34,000  Level Denver Center
01:00PM 36.5144 -110.8308 248° West 364 419 34,000  Level Denver Center
01:01PM 36.4767 -110.9475 248° West 364 419 34,000  Level Denver Center
01:02PM 36.4406 -111.0636 249° West 363 418 34,000  Level Denver Center
01:03PM 36.3964 -111.2028 249° West 362 417 34,000  Level Denver Center
01:04PM 36.3586 -111.3189 248° West 362 417 34,000  Level Denver Center
01:05PM 36.3217 -111.4361 249° West 363 418 34,000  Level Denver Center
01:06PM 36.2856 -111.5531 249° West 362 417 34,000  Level Denver Center
01:07PM 36.2533 -111.6486 247° West 363 418 34,000  Level Los Angeles Center
01:08PM 36.2158 -111.7669 249° West 367 422 34,000  Level Los Angeles Center
01:09PM 36.1783 -111.8817 248° West 363 418 34,000  Level Los Angeles Center
01:10PM 36.1403 -111.9981 248° West 364 419 34,000  Level Los Angeles Center
01:11PM 36.1047 -112.1089 248° West 354 407 34,000  Level Los Angeles Center
01:12PM 36.0608 -112.2408 248° West 348 400 34,000  Level Los Angeles Center
01:13PM 36.0267 -112.3483 249° West 340 391 34,000  Level Los Angeles Center
01:14PM 35.9897 -112.4575 247° West 340 391 34,000  Level Los Angeles Center
01:15PM 35.9519 -112.5697 247° West 349 402 34,000  Level Los Angeles Center
01:16PM 35.9100 -112.6997 248° West 350 403 34,000  Level Los Angeles Center
01:17PM 35.8731 -112.8094 247° West 348 400 34,000  Level Los Angeles Center
01:18PM 35.8361 -112.9181 247° West 348 400 34,000  Level Los Angeles Center
01:20PM 35.8006 -113.0281 248° West 348 400 34,000  Level Los Angeles Center
01:21PM 35.7631 -113.1361 247° West 348 400 34,000  Level Los Angeles Center
01:22PM 35.7194 -113.2653 247° West 345 397 34,000  Level Los Angeles Center
01:23PM 35.6847 -113.3686 248° West 333 383 34,000  Level Los Angeles Center
01:24PM 35.6489 -113.4722 247° West 332 382 34,000  Level Los Angeles Center
01:25PM 35.6133 -113.5753 247° West 331 381 34,000  Level Los Angeles Center
01:26PM 35.5706 -113.6792 243° Southwest 341 392 34,000  Level Los Angeles Center
01:27PM 35.5203 -113.8019 243° Southwest 337 388 34,000  Level Los Angeles Center
01:28PM 35.4811 -113.9003 244° Southwest 325 374 34,000  Level Los Angeles Center
01:29PM 35.4400 -113.9994 243° Southwest 333 383 34,000  Level Los Angeles Center
01:30PM 35.3889 -114.1247 243° Southwest 341 392 34,000  Level Los Angeles Center
01:31PM 35.3483 -114.2242 243° Southwest 329 379 34,000  Level Los Angeles Center
01:32PM 35.3061 -114.3244 243° Southwest 328 377 34,000  Level Los Angeles Center
01:33PM 35.2642 -114.4286 244° Southwest 336 387 34,000  Level Los Angeles Center
01:34PM 35.2211 -114.5317 243° Southwest 338 389 34,000  Level Los Angeles Center
01:35PM 35.1781 -114.6350 243° Southwest 340 391 34,000  Level Los Angeles Center
01:36PM 35.1331 -114.7411 243° Southwest 347 399 34,000  Level Los Angeles Center
01:37PM 35.0822 -114.8642 243° Southwest 341 392 34,000  Level Los Angeles Center
01:38PM 35.0392 -114.9675 243° Southwest 340 391 34,000  Level Los Angeles Center
01:39PM 34.9958 -115.0686 242° Southwest 337 388 34,000  Level Los Angeles Center
01:40PM 34.9531 -115.1700 243° Southwest 337 388 34,000  Level Los Angeles Center
01:41PM 34.9111 -115.2694 243° Southwest 330 380 34,000  Level Los Angeles Center
01:42PM 34.8694 -115.3664 242° Southwest 325 374 34,000 -300 Level Los Angeles Center
01:43PM 34.8192 -115.4842 243° Southwest 326 375 33,500 -720 Descending Los Angeles Center
01:44PM 34.7811 -115.5758 243° Southwest 328 377 32,600 -1,380 Descending Los Angeles Center
01:45PM 34.7342 -115.6817 242° Southwest 350 403 30,700 -1,620 Descending Los Angeles Center
01:46PM 34.6894 -115.7867 243° Southwest 351 404 29,300 -1,260 Descending Los Angeles Center
01:47PM 34.6364 -115.9067 242° Southwest 340 391 28,100 -1,140 Descending Los Angeles Center
01:49PM 34.5942 -116.0072 243° Southwest 335 386 27,000 -540 Descending Los Angeles Center
01:50PM 34.5483 -116.1144 243° Southwest 350 403 27,000  Level Los Angeles Center
01:51PM 34.4983 -116.2253 241° Southwest 366 421 27,000  Level Los Angeles Center
01:52PM 34.4511 -116.3328 242° Southwest 365 420 27,000  Level Los Angeles Center
01:53PM 34.4050 -116.4389 242° Southwest 358 412 27,000  Level Los Angeles Center
01:54PM 34.3486 -116.5667 242° Southwest 358 412 27,000 -300 Level Los Angeles Center
01:55PM 34.3019 -116.6714 242° Southwest 354 407 26,500 -1,200 Descending Los Angeles Center
01:56PM 34.2589 -116.7678 242° Southwest 334 384 24,500 -1,920 Descending Los Angeles Center
01:57PM 34.2175 -116.8619 242° Southwest 321 369 22,600 -1,860 Descending Los Angeles Center
01:58PM 34.1767 -116.9528 242° Southwest 311 358 20,700 -1,800 Descending Los Angeles Center
01:59PM 34.1367 -117.0414 241° Southwest 302 348 18,900 -1,500 Descending Los Angeles Center
02:00PM 34.0906 -117.1478 242° Southwest 302 348 17,600 -1,080 Descending Los Angeles Center
02:01PM 34.0503 -117.2358 241° Southwest 304 350 16,700 -1,200 Descending Los Angeles Center
02:02PM 34.0333 -117.3667 261° West 288 331 15,000 -1,560 Descending Southern California TRACON
02:03PM 34.0333 -117.4500 270° West 280 322 13,400 -1,620 Descending Southern California TRACON
02:04PM 34.0333 -117.5500 270° West 271 312 11,800 -1,500 Descending Southern California TRACON
02:05PM 34.0333 -117.6333 270° West 267 307 10,500 -1,080 Descending Southern California TRACON
02:06PM 34.0167 -117.7167 256° West 251 289 9,700 -960 Descending Southern California TRACON
02:07PM 34.0167 -117.8000 270° West 234 269 8,600 -1,080 Descending Southern California TRACON
02:08PM 34.0000 -117.8833 256° West 228 262 7,600 -1,200 Descending Southern California TRACON
02:09PM 34.0000 -117.9500 270° West 243 280 6,300 -1,440 Descending Southern California TRACON
02:10PM 33.9833 -118.0500 259° West 263 303 4,800 -1,200 Descending Southern California TRACON
02:11PM 33.9833 -118.1333 270° West 260 299 3,900 -780 Descending Southern California TRACON
02:12PM 33.9667 -118.2000 253° West 228 262 3,300 -900 Descending Southern California TRACON
02:13PM 33.9667 -118.2833 270° West 205 236 2,200 -1,020 Descending Southern California TRACON
02:14PM 33.9667 -118.3333 270° West 167 192 1,300 -900 Descending Southern California TRACON
02:15PM 33.9528 -118.4000 256° West 167 192 200 -840 Descending Los Angeles Center
02:17PM 33.9333 -118.4000 259° West  Level FlightAware Approximate
02:24PM 33.9425 -118.4081 259° West  Level Estimated